Time;durP1;ratioP1;P1;durP2;ratioP2;P2;SDS_P1;SDS_P2;PMS_P1;PMS_P2;Temp;Humidity;BMP_temperature;BMP_pressure;BME280_temperature;BME280_humidity;BME280_pressure;Samples;Min_cycle;Max_cycle;Signal;HPM_P1;HPM_P2
2022/03/27 00:02:22;;;;;;;8.77;5.30;;;8.90;57.80;;;;;;5014659;28;20631;-76
2022/03/27 00:04:48;;;;;;;8.93;6.13;;;8.90;57.60;;;;;;5014612;28;20185;-76
2022/03/27 00:07:14;;;;;;;6.83;5.50;;;8.80;58.20;;;;;;5011975;28;20204;-76
2022/03/27 00:09:40;;;;;;;8.90;5.37;;;8.80;58.30;;;;;;5012300;28;20181;-76
2022/03/27 00:12:06;;;;;;;6.90;5.27;;;8.70;58.30;;;;;;5014643;28;20187;-75
2022/03/27 00:14:32;;;;;;;9.27;5.20;;;8.70;58.00;;;;;;5012516;28;20200;-74
2022/03/27 00:16:57;;;;;;;8.83;6.20;;;8.70;58.40;;;;;;5010965;28;20189;-74
2022/03/27 00:19:24;;;;;;;11.70;5.73;;;8.60;58.90;;;;;;5017972;28;20193;-74
2022/03/27 00:21:50;;;;;;;8.73;5.63;;;8.60;58.80;;;;;;5014479;28;20242;-75
2022/03/27 00:24:16;;;;;;;11.67;5.30;;;8.50;59.00;;;;;;5011944;28;20714;-75
2022/03/27 00:26:41;;;;;;;8.60;5.50;;;8.50;58.70;;;;;;5012421;28;20220;-74
2022/03/27 00:29:08;;;;;;;7.00;4.60;;;8.40;58.70;;;;;;5014875;28;20185;-74
2022/03/27 00:31:36;;;;;;;11.00;5.10;;;8.40;58.90;;;;;;5013145;28;20670;-74
2022/03/27 00:34:03;;;;;;;6.10;4.93;;;8.40;59.40;;;;;;5014964;28;20193;-73
2022/03/27 00:36:29;;;;;;;7.50;4.50;;;8.30;59.30;;;;;;5015939;28;20193;-74
2022/03/27 00:38:55;;;;;;;9.10;5.33;;;8.30;59.60;;;;;;5015967;28;20231;-74
2022/03/27 00:41:23;;;;;;;8.10;5.53;;;8.30;59.60;;;;;;5012758;28;20181;-73
2022/03/27 00:43:49;;;;;;;10.50;5.57;;;8.30;59.60;;;;;;5025921;28;20185;-74
2022/03/27 00:46:14;;;;;;;11.50;5.37;;;8.20;59.70;;;;;;5015998;28;20689;-75
2022/03/27 00:48:40;;;;;;;7.77;5.03;;;8.20;59.90;;;;;;5012650;28;20189;-74
2022/03/27 00:51:06;;;;;;;9.43;5.93;;;8.20;60.00;;;;;;5010668;28;20192;-74
2022/03/27 00:53:32;;;;;;;13.80;6.27;;;8.10;60.50;;;;;;5015529;28;20189;-74
2022/03/27 00:55:58;;;;;;;12.07;6.47;;;8.10;60.30;;;;;;5013218;28;20184;-74
2022/03/27 00:58:24;;;;;;;14.03;6.43;;;8.10;60.20;;;;;;5016152;28;20188;-74
2022/03/27 01:01:01;;;;;;;13.67;7.37;;;8.00;60.70;;;;;;5012489;28;20199;-75
2022/03/27 01:03:28;;;;;;;10.57;6.00;;;8.00;60.50;;;;;;5010287;28;20188;-75
2022/03/27 01:05:57;;;;;;;10.13;6.43;;;7.90;60.80;;;;;;5012687;28;20606;-75
2022/03/27 01:11:18;;;;;;;9.00;6.17;;;7.80;60.80;;;;;;5005287;28;20250;-76
2022/03/27 01:13:49;;;;;;;6.53;4.80;;;7.70;60.60;;;;;;5012595;28;20267;-75
2022/03/27 01:16:17;;;;;;;9.50;5.53;;;7.60;60.90;;;;;;5013491;28;20267;-74
2022/03/27 01:18:43;;;;;;;9.43;5.47;;;7.50;60.50;;;;;;5007713;28;20657;-73
2022/03/27 01:21:09;;;;;;;14.40;5.33;;;7.50;61.20;;;;;;5016600;28;20180;-75
2022/03/27 01:23:35;;;;;;;7.97;4.93;;;7.40;60.90;;;;;;5011478;28;20325;-75
2022/03/27 01:26:01;;;;;;;8.10;5.07;;;7.30;61.30;;;;;;5012438;28;22115;-76
2022/03/27 01:28:27;;;;;;;9.67;5.23;;;7.30;61.40;;;;;;5014135;28;20668;-75
2022/03/27 01:30:53;;;;;;;9.43;4.97;;;7.20;61.90;;;;;;5011570;28;20192;-75
2022/03/27 01:33:18;;;;;;;10.37;5.80;;;7.20;61.30;;;;;;5015340;28;20195;-74
2022/03/27 01:35:44;;;;;;;6.83;4.27;;;7.10;61.90;;;;;;5014854;28;20180;-75
2022/03/27 01:38:11;;;;;;;7.63;5.10;;;7.10;61.70;;;;;;5010847;28;20185;-75
2022/03/27 01:40:37;;;;;;;11.17;4.47;;;7.10;61.70;;;;;;5016203;28;20249;-75
2022/03/27 01:43:03;;;;;;;7.37;5.33;;;7.10;62.10;;;;;;5009033;28;20193;-75
2022/03/27 01:45:29;;;;;;;7.93;4.60;;;7.10;62.10;;;;;;5012209;28;20220;-75
2022/03/27 01:47:54;;;;;;;5.17;4.20;;;7.00;62.20;;;;;;5006274;28;20243;-75
2022/03/27 01:50:20;;;;;;;8.47;4.50;;;7.00;62.40;;;;;;5011752;28;20191;-74
2022/03/27 01:52:46;;;;;;;7.37;5.23;;;6.90;62.20;;;;;;5014461;28;20192;-75
2022/03/27 01:55:16;;;;;;;10.83;4.97;;;6.90;62.30;;;;;;5012369;28;20188;-75
2022/03/27 01:57:43;;;;;;;7.20;4.00;;;6.90;62.60;;;;;;5012032;28;20180;-75
2022/03/27 02:00:11;;;;;;;5.17;4.67;;;6.80;62.50;;;;;;5015577;28;20191;-75
2022/03/27 02:02:36;;;;;;;5.60;4.53;;;6.80;62.50;;;;;;5012885;28;20185;-74
2022/03/27 02:05:04;;;;;;;7.30;4.37;;;6.80;62.70;;;;;;5012554;28;20217;-75
2022/03/27 02:07:44;;;;;;;9.20;5.20;;;6.80;62.50;;;;;;5017574;28;20300;-74
2022/03/27 02:10:10;;;;;;;5.87;4.37;;;6.70;62.70;;;;;;5012001;28;20193;-74
2022/03/27 02:12:36;;;;;;;10.83;4.90;;;6.70;62.90;;;;;;5012407;28;20188;-74
2022/03/27 02:15:05;;;;;;;6.50;4.97;;;6.70;63.00;;;;;;5012080;28;20192;-75
2022/03/27 02:17:36;;;;;;;7.57;4.47;;;6.60;63.10;;;;;;5015678;28;20355;-74
2022/03/27 02:20:01;;;;;;;5.60;4.33;;;6.60;63.10;;;;;;5014849;28;20312;-75
2022/03/27 02:22:27;;;;;;;6.27;4.60;;;6.60;63.30;;;;;;5013174;28;20647;-74
2022/03/27 02:24:53;;;;;;;9.17;5.43;;;6.50;63.30;;;;;;5017653;28;20191;-74
2022/03/27 02:27:19;;;;;;;6.47;4.47;;;6.50;63.40;;;;;;5017159;28;20618;-74
2022/03/27 02:29:44;;;;;;;6.37;4.70;;;6.40;63.20;;;;;;5012794;28;20189;-74
2022/03/27 02:32:10;;;;;;;8.67;4.87;;;6.40;63.40;;;;;;5018297;28;20181;-74
2022/03/27 02:34:36;;;;;;;4.70;3.60;;;6.40;63.10;;;;;;5013741;28;20589;-74
2022/03/27 02:37:02;;;;;;;6.13;4.70;;;6.40;63.20;;;;;;5013923;28;20215;-74
2022/03/27 02:39:28;;;;;;;6.50;4.53;;;6.40;63.40;;;;;;5017300;28;20235;-75
2022/03/27 02:41:53;;;;;;;12.93;4.77;;;6.40;63.40;;;;;;5015946;28;20178;-75
2022/03/27 02:44:20;;;;;;;8.90;4.90;;;6.40;63.70;;;;;;5014155;28;21708;-75
2022/03/27 02:46:46;;;;;;;5.30;4.50;;;6.40;63.70;;;;;;5014577;28;20299;-75
2022/03/27 02:49:11;;;;;;;7.17;4.90;;;6.30;63.60;;;;;;5016784;28;20326;-74
2022/03/27 02:51:38;;;;;;;4.93;4.47;;;6.30;63.70;;;;;;5013764;28;20238;-75
2022/03/27 02:54:04;;;;;;;6.17;4.73;;;6.30;63.80;;;;;;5015222;28;20181;-76
2022/03/27 02:56:30;;;;;;;7.40;4.63;;;6.30;63.80;;;;;;5014932;28;20195;-74
2022/03/27 02:58:55;;;;;;;4.87;4.03;;;6.30;63.80;;;;;;5017300;28;20189;-75
2022/03/27 03:01:21;;;;;;;7.00;4.57;;;6.30;63.90;;;;;;5013476;28;20181;-75
2022/03/27 03:03:47;;;;;;;6.60;4.40;;;6.30;64.00;;;;;;5018494;28;20244;-74
2022/03/27 03:06:14;;;;;;;5.50;3.83;;;6.20;64.00;;;;;;5010441;28;20216;-75
2022/03/27 03:08:40;;;;;;;6.30;4.77;;;6.20;64.10;;;;;;5011757;28;20185;-75
2022/03/27 03:11:06;;;;;;;8.37;4.77;;;6.20;64.10;;;;;;5017904;28;20732;-75
2022/03/27 03:13:32;;;;;;;9.10;4.90;;;6.20;64.10;;;;;;5014863;28;20214;-75
2022/03/27 03:15:58;;;;;;;5.63;4.60;;;6.20;64.20;;;;;;5016207;28;20189;-75
2022/03/27 03:18:25;;;;;;;5.10;4.60;;;6.20;64.50;;;;;;5018379;28;20629;-75
2022/03/27 03:20:51;;;;;;;10.13;4.83;;;6.10;64.90;;;;;;5012563;28;20181;-75
2022/03/27 03:23:17;;;;;;;9.67;4.50;;;6.10;65.30;;;;;;5016796;28;20189;-74
2022/03/27 03:25:42;;;;;;;10.20;5.07;;;6.00;65.40;;;;;;5016872;28;20244;-74
2022/03/27 03:28:09;;;;;;;7.07;3.87;;;6.00;65.70;;;;;;5012092;28;20220;-74
2022/03/27 03:30:34;;;;;;;8.13;4.23;;;5.90;65.60;;;;;;5015135;28;20234;-74
2022/03/27 03:33:00;;;;;;;11.83;5.80;;;5.90;65.60;;;;;;5019502;28;20211;-74
2022/03/27 03:35:26;;;;;;;5.47;4.17;;;5.90;65.80;;;;;;5011921;28;20184;-74
2022/03/27 03:37:51;;;;;;;8.13;5.07;;;5.80;65.70;;;;;;5016958;28;20215;-74
2022/03/27 03:40:18;;;;;;;7.83;4.47;;;5.80;65.60;;;;;;5013575;28;20188;-75
2022/03/27 03:42:44;;;;;;;9.97;4.60;;;5.80;65.60;;;;;;5014355;28;20176;-75
2022/03/27 03:45:10;;;;;;;7.73;4.53;;;5.80;65.80;;;;;;5015527;28;20209;-75
2022/03/27 03:47:36;;;;;;;7.57;5.13;;;5.80;66.40;;;;;;5012817;28;20209;-75
2022/03/27 03:50:03;;;;;;;12.40;5.33;;;5.80;66.10;;;;;;5013817;28;20771;-74
2022/03/27 03:52:29;;;;;;;9.57;4.87;;;5.80;66.20;;;;;;5015077;28;20558;-76
2022/03/27 03:54:55;;;;;;;8.53;4.63;;;5.80;66.20;;;;;;5014818;28;20196;-75
2022/03/27 03:57:21;;;;;;;10.20;5.20;;;5.80;66.30;;;;;;5010104;28;20235;-74
2022/03/27 03:59:46;;;;;;;6.77;4.13;;;5.80;66.20;;;;;;5010080;28;20185;-74
2022/03/27 04:02:14;;;;;;;8.13;4.87;;;5.80;66.40;;;;;;5009064;28;20639;-73
2022/03/27 04:04:40;;;;;;;5.67;5.00;;;5.80;66.50;;;;;;5018382;28;20177;-75
2022/03/27 04:07:06;;;;;;;7.50;4.87;;;5.80;66.50;;;;;;5015949;28;20217;-74
2022/03/27 04:09:32;;;;;;;9.03;5.20;;;5.80;66.50;;;;;;5012704;28;20188;-76
2022/03/27 04:11:58;;;;;;;5.00;4.03;;;5.80;66.40;;;;;;5011583;28;20193;-75
2022/03/27 04:14:24;;;;;;;8.23;4.37;;;5.70;66.40;;;;;;5015280;28;20651;-75
2022/03/27 04:16:50;;;;;;;9.33;4.27;;;5.70;66.50;;;;;;5014452;28;20282;-75
2022/03/27 04:19:31;;;;;;;8.80;5.10;;;5.70;66.70;;;;;;5015268;28;20185;-75
2022/03/27 04:21:57;;;;;;;9.30;5.20;;;5.70;66.60;;;;;;5014401;28;20589;-74
2022/03/27 04:24:23;;;;;;;10.53;4.57;;;5.70;66.70;;;;;;5009801;28;20286;-75
2022/03/27 04:26:48;;;;;;;7.33;4.07;;;5.70;66.70;;;;;;5016746;28;20216;-74
2022/03/27 04:29:14;;;;;;;9.10;5.47;;;5.70;66.70;;;;;;5015324;28;20188;-75
2022/03/27 04:31:40;;;;;;;6.07;4.47;;;5.70;67.00;;;;;;5015279;28;20749;-75
2022/03/27 04:34:07;;;;;;;9.23;5.10;;;5.70;67.10;;;;;;5017321;28;20188;-76
2022/03/27 04:36:32;;;;;;;8.63;5.47;;;5.70;67.10;;;;;;5011082;28;20192;-74
2022/03/27 04:38:59;;;;;;;8.03;4.73;;;5.70;67.20;;;;;;5017203;28;20191;-74
2022/03/27 04:41:25;;;;;;;9.00;5.43;;;5.70;67.60;;;;;;5010509;28;20196;-75
2022/03/27 04:43:51;;;;;;;11.50;5.30;;;5.70;67.60;;;;;;5015912;28;20176;-76
2022/03/27 04:46:17;;;;;;;7.73;5.07;;;5.70;67.70;;;;;;5016335;28;20216;-75
2022/03/27 04:48:44;;;;;;;10.83;5.93;;;5.70;67.80;;;;;;5011097;28;20791;-74
2022/03/27 04:51:11;;;;;;;11.27;5.07;;;5.70;67.70;;;;;;5010151;28;20212;-76
2022/03/27 04:53:37;;;;;;;8.57;5.10;;;5.70;67.60;;;;;;5010751;28;20239;-75
2022/03/27 04:56:02;;;;;;;4.53;4.13;;;5.70;67.70;;;;;;5015854;28;20196;-75
2022/03/27 04:58:28;;;;;;;6.67;4.80;;;5.70;68.00;;;;;;5016092;28;20187;-75
2022/03/27 05:00:54;;;;;;;11.10;5.33;;;5.70;67.90;;;;;;5018755;28;20267;-76
2022/03/27 05:03:19;;;;;;;12.23;5.07;;;5.70;68.10;;;;;;5006902;28;20580;-75
2022/03/27 05:05:45;;;;;;;7.97;5.07;;;5.70;68.10;;;;;;5013251;28;20220;-75
2022/03/27 05:08:11;;;;;;;6.70;4.87;;;5.70;68.10;;;;;;5012654;28;20188;-75
2022/03/27 05:10:38;;;;;;;6.40;4.60;;;5.70;68.00;;;;;;5013833;28;20641;-75
2022/03/27 05:13:04;;;;;;;9.97;5.57;;;5.70;68.30;;;;;;5013599;28;20182;-75
2022/03/27 05:15:30;;;;;;;7.60;4.90;;;5.70;68.40;;;;;;5013261;28;20272;-75
2022/03/27 05:17:58;;;;;;;7.23;5.80;;;5.60;68.40;;;;;;5011193;28;20188;-75
2022/03/27 05:20:28;;;;;;;11.47;5.97;;;5.60;68.30;;;;;;5006431;28;20184;-75
2022/03/27 05:22:55;;;;;;;8.93;4.70;;;5.70;68.40;;;;;;5013988;28;20213;-75
2022/03/27 05:25:21;;;;;;;8.63;4.93;;;5.70;68.50;;;;;;5014231;28;20215;-75
2022/03/27 05:27:56;;;;;;;6.80;4.77;;;5.70;68.50;;;;;;5009628;28;20191;-75
2022/03/27 05:30:24;;;;;;;9.70;5.00;;;5.70;68.00;;;;;;5006521;28;20188;-75
2022/03/27 05:32:51;;;;;;;6.20;4.90;;;5.80;67.90;;;;;;5012538;28;20219;-75
2022/03/27 05:35:18;;;;;;;8.57;5.13;;;5.80;67.70;;;;;;5006369;28;20268;-75
2022/03/27 05:37:45;;;;;;;6.67;4.40;;;5.80;67.80;;;;;;5012386;28;20207;-74
2022/03/27 05:40:13;;;;;;;8.13;5.13;;;5.90;67.60;;;;;;5016497;28;20669;-73
2022/03/27 05:42:39;;;;;;;8.80;3.97;;;5.90;67.60;;;;;;5012532;28;20216;-74
2022/03/27 05:45:07;;;;;;;7.67;4.50;;;6.00;67.60;;;;;;5012413;28;20203;-76
2022/03/27 05:47:33;;;;;;;6.63;4.70;;;6.10;67.50;;;;;;5027063;28;20189;-75
2022/03/27 05:49:59;;;;;;;11.37;4.67;;;6.20;67.50;;;;;;5011934;28;20201;-74
2022/03/27 05:52:25;;;;;;;11.03;5.13;;;6.30;68.20;;;;;;5017021;28;20255;-74
2022/03/27 05:54:51;;;;;;;8.60;5.33;;;6.30;68.40;;;;;;5013012;28;20275;-75
2022/03/27 05:57:18;;;;;;;7.87;5.23;;;6.40;68.30;;;;;;5011633;28;20205;-76
2022/03/27 05:59:47;;;;;;;14.87;5.90;;;6.50;68.60;;;;;;5016066;28;20180;-76
2022/03/27 06:02:14;;;;;;;7.77;5.20;;;6.50;67.90;;;;;;5024150;28;20195;-76
2022/03/27 06:04:41;;;;;;;14.27;5.47;;;6.60;68.00;;;;;;5014094;28;20176;-75
2022/03/27 06:07:07;;;;;;;8.77;5.20;;;6.70;68.00;;;;;;5018724;28;20610;-76
2022/03/27 06:09:33;;;;;;;7.57;5.97;;;6.80;68.30;;;;;;5016856;28;20180;-75
2022/03/27 06:11:59;;;;;;;10.00;6.30;;;6.90;68.30;;;;;;5016636;28;20185;-77
2022/03/27 06:14:25;;;;;;;12.00;5.90;;;7.00;67.70;;;;;;5015778;28;20192;-76
2022/03/27 06:16:51;;;;;;;10.40;6.40;;;7.00;67.40;;;;;;5017363;28;20185;-74
2022/03/27 06:19:17;;;;;;;11.53;6.60;;;7.10;67.10;;;;;;5018537;28;20874;-74
2022/03/27 06:21:45;;;;;;;8.17;6.90;;;7.20;67.30;;;;;;5012032;28;20185;-76
2022/03/27 06:24:12;;;;;;;8.83;6.00;;;7.20;67.20;;;;;;5015663;28;20191;-76
2022/03/27 06:26:38;;;;;;;14.37;6.70;;;7.30;67.40;;;;;;5018117;28;20219;-73
2022/03/27 06:29:04;;;;;;;9.43;7.30;;;7.40;66.70;;;;;;5016070;28;20658;-72
2022/03/27 06:31:30;;;;;;;12.37;7.77;;;7.50;67.50;;;;;;5017633;28;20185;-72
2022/03/27 06:33:56;;;;;;;9.43;7.07;;;7.60;66.80;;;;;;5018853;28;20290;-73
2022/03/27 06:36:22;;;;;;;11.70;7.50;;;7.70;66.30;;;;;;5017291;28;20276;-73
2022/03/27 06:38:47;;;;;;;9.27;6.53;;;7.80;66.00;;;;;;5017341;28;20184;-72
2022/03/27 06:41:14;;;;;;;13.43;8.17;;;7.80;66.20;;;;;;5017794;28;20334;-73
2022/03/27 06:43:40;;;;;;;13.43;7.73;;;7.90;65.90;;;;;;5017411;28;20177;-75
2022/03/27 06:46:06;;;;;;;13.47;7.70;;;7.90;66.10;;;;;;5016963;28;20585;-75
2022/03/27 06:48:32;;;;;;;12.77;7.57;;;8.00;65.90;;;;;;5015672;28;20311;-73
2022/03/27 06:50:58;;;;;;;13.50;8.83;;;8.10;65.90;;;;;;5018870;28;20192;-75
2022/03/27 06:53:25;;;;;;;15.37;7.50;;;8.20;65.30;;;;;;5013293;28;20177;-73
2022/03/27 06:55:51;;;;;;;15.53;8.23;;;8.20;65.10;;;;;;5015541;28;20193;-73
2022/03/27 06:58:18;;;;;;;10.37;7.53;;;8.30;64.80;;;;;;5012021;28;20196;-74
2022/03/27 07:03:28;;;;;;;15.17;8.53;;;8.50;65.10;;;;;;5013656;28;20732;-74
2022/03/27 07:05:53;;;;;;;11.87;7.53;;;8.60;64.60;;;;;;5014810;28;20228;-75
2022/03/27 07:08:20;;;;;;;15.90;8.57;;;8.70;64.50;;;;;;5012861;28;20185;-76
2022/03/27 07:10:47;;;;;;;16.47;8.23;;;8.80;63.90;;;;;;5015373;28;20192;-76
2022/03/27 07:13:15;;;;;;;15.87;8.33;;;8.90;63.60;;;;;;5015504;28;20182;-76
2022/03/27 07:15:42;;;;;;;16.50;8.50;;;9.00;64.00;;;;;;5015042;28;20177;-75
2022/03/27 07:18:09;;;;;;;12.47;8.57;;;9.10;63.80;;;;;;5017083;28;20177;-76
2022/03/27 07:20:37;;;;;;;12.90;8.93;;;9.20;63.70;;;;;;5027419;28;20992;-76
2022/03/27 07:23:09;;;;;;;16.03;9.37;;;9.30;64.00;;;;;;5010544;28;20185;-77
2022/03/27 07:25:36;;;;;;;16.03;8.97;;;9.40;63.10;;;;;;5012719;28;20307;-75
2022/03/27 07:28:04;;;;;;;15.13;7.83;;;9.50;63.10;;;;;;5016268;28;20185;-75
2022/03/27 07:30:30;;;;;;;10.57;7.47;;;9.60;63.20;;;;;;5012111;28;20215;-75
2022/03/27 07:32:57;;;;;;;9.40;7.47;;;9.70;62.70;;;;;;5012299;28;20216;-74
2022/03/27 07:35:26;;;;;;;10.73;6.87;;;9.80;62.60;;;;;;5012298;28;20193;-76
2022/03/27 07:37:53;;;;;;;12.13;7.57;;;9.90;62.50;;;;;;5011622;28;20337;-75
2022/03/27 07:40:20;;;;;;;13.47;8.40;;;10.00;62.20;;;;;;5008335;28;20177;-77
2022/03/27 07:42:49;;;;;;;8.53;7.33;;;10.20;62.30;;;;;;5009148;28;20193;-74
2022/03/27 07:45:20;;;;;;;14.17;8.30;;;10.30;61.80;;;;;;5006017;28;20220;-74
2022/03/27 07:47:46;;;;;;;11.30;8.23;;;10.40;61.70;;;;;;5008205;28;20180;-74
2022/03/27 07:50:12;;;;;;;10.50;7.23;;;10.60;61.30;;;;;;5009504;28;20176;-74
2022/03/27 07:52:39;;;;;;;12.20;8.30;;;10.80;61.10;;;;;;5008923;28;20189;-77
2022/03/27 07:55:06;;;;;;;11.80;8.43;;;10.90;61.00;;;;;;5008521;28;20188;-75
2022/03/27 07:57:32;;;;;;;14.57;8.23;;;11.10;60.50;;;;;;5012983;28;20185;-77
2022/03/27 07:59:58;;;;;;;13.47;8.23;;;11.20;60.50;;;;;;5013519;28;20185;-76
2022/03/27 08:02:23;;;;;;;14.77;8.47;;;11.40;60.80;;;;;;5012730;28;20574;-76
2022/03/27 08:04:49;;;;;;;9.20;6.97;;;11.60;60.30;;;;;;5015354;28;20238;-76
2022/03/27 08:07:16;;;;;;;17.67;7.40;;;11.80;60.30;;;;;;5016099;28;20255;-77
2022/03/27 08:09:42;;;;;;;9.63;7.43;;;12.00;59.80;;;;;;5013835;28;20207;-77
2022/03/27 08:12:09;;;;;;;16.07;7.03;;;12.20;59.50;;;;;;5016255;28;20199;-76
2022/03/27 08:14:39;;;;;;;8.20;5.67;;;12.40;59.00;;;;;;5012322;28;20219;-76
2022/03/27 08:17:06;;;;;;;11.52;5.18;;;12.70;56.30;;;;;;5010963;28;20185;-75
2022/03/27 08:19:34;;;;;;;8.15;5.50;;;12.90;56.30;;;;;;5014044;28;20235;-73
2022/03/27 08:22:01;;;;;;;10.40;5.78;;;13.30;54.10;;;;;;5008223;28;20200;-75
2022/03/27 08:24:27;;;;;;;5.43;4.72;;;13.60;53.20;;;;;;5014407;28;20185;-74
2022/03/27 08:26:56;;;;;;;8.43;5.50;;;13.90;52.60;;;;;;5011084;28;20295;-74
2022/03/27 08:29:41;;;;;;;9.65;6.10;;;14.20;52.80;;;;;;5011450;28;20185;-75
2022/03/27 08:32:09;;;;;;;10.93;5.93;;;14.60;52.20;;;;;;5012354;28;20743;-77
2022/03/27 08:34:37;;;;;;;8.77;6.00;;;15.10;50.30;;;;;;5011170;28;21084;-76
2022/03/27 08:37:05;;;;;;;8.15;5.80;;;15.40;50.20;;;;;;5013109;28;20689;-75
2022/03/27 08:39:32;;;;;;;13.68;6.20;;;15.70;49.50;;;;;;5011024;28;20553;-74
2022/03/27 08:41:58;;;;;;;8.90;6.03;;;16.10;49.10;;;;;;5012542;28;20192;-75
2022/03/27 08:44:26;;;;;;;7.25;5.47;;;16.60;48.90;;;;;;5012288;28;20263;-73
2022/03/27 08:46:53;;;;;;;10.73;6.25;;;17.10;47.70;;;;;;5006513;28;20213;-74
2022/03/27 08:49:25;;;;;;;9.55;5.70;;;17.60;46.80;;;;;;5004524;28;20189;-74
2022/03/27 08:52:03;;;;;;;10.20;5.85;;;17.90;46.90;;;;;;5007338;28;20689;-74
2022/03/27 08:54:39;;;;;;;14.20;6.15;;;18.50;46.20;;;;;;5007157;28;20604;-74
2022/03/27 08:57:14;;;;;;;14.98;6.68;;;19.00;45.80;;;;;;5005945;28;20181;-74
2022/03/27 08:59:42;;;;;;;10.70;6.72;;;19.60;45.20;;;;;;5008297;28;20215;-74
2022/03/27 09:02:08;;;;;;;10.82;7.38;;;19.90;44.20;;;;;;5010858;28;20227;-75
2022/03/27 09:04:36;;;;;;;10.80;7.10;;;20.30;43.60;;;;;;5004984;28;20185;-74
2022/03/27 09:07:03;;;;;;;11.80;7.47;;;20.70;43.00;;;;;;5012351;28;20266;-77
2022/03/27 09:09:35;;;;;;;11.75;7.95;;;21.20;42.70;;;;;;5008901;28;20192;-75
2022/03/27 09:12:05;;;;;;;10.10;6.90;;;21.70;42.10;;;;;;5009648;28;20193;-75
2022/03/27 09:14:32;;;;;;;10.27;7.28;;;22.10;41.50;;;;;;5004930;28;20901;-74
2022/03/27 09:17:06;;;;;;;11.85;7.68;;;22.40;41.10;;;;;;5010923;28;20728;-75
2022/03/27 09:19:45;;;;;;;10.88;7.55;;;22.20;40.50;;;;;;5006562;28;20185;-75
2022/03/27 09:22:19;;;;;;;12.20;8.10;;;21.70;40.60;;;;;;5009477;28;20805;-74
2022/03/27 09:24:47;;;;;;;16.48;8.27;;;21.50;40.50;;;;;;5006366;28;20188;-75
2022/03/27 09:27:14;;;;;;;15.88;7.32;;;21.30;40.70;;;;;;5025537;28;20211;-74
2022/03/27 09:29:57;;;;;;;10.07;7.68;;;21.40;40.80;;;;;;5004085;28;20189;-74
2022/03/27 09:32:31;;;;;;;10.80;7.40;;;21.40;40.80;;;;;;5008688;28;20181;-75
2022/03/27 09:35:11;;;;;;;10.02;7.40;;;21.60;40.70;;;;;;5005475;28;20194;-75
2022/03/27 09:37:42;;;;;;;9.68;7.13;;;22.20;40.40;;;;;;5002033;28;20979;-75
2022/03/27 09:40:10;;;;;;;17.25;8.00;;;22.70;40.20;;;;;;5008230;28;20208;-74
2022/03/27 09:42:37;;;;;;;12.25;7.13;;;23.30;39.50;;;;;;5007769;28;20184;-74
2022/03/27 09:45:19;;;;;;;14.48;7.47;;;23.80;39.40;;;;;;5009122;28;20222;-73
2022/03/27 09:47:53;;;;;;;12.43;7.50;;;24.40;38.30;;;;;;5014241;28;20238;-74
2022/03/27 09:50:34;;;;;;;20.95;7.90;;;24.20;38.50;;;;;;5007302;28;20172;-75
2022/03/27 09:53:23;;;;;;;8.65;6.82;;;24.40;37.50;;;;;;5008562;28;20193;-76
2022/03/27 09:55:53;;;;;;;11.98;7.68;;;24.30;37.60;;;;;;5011035;28;20185;-75
2022/03/27 09:58:40;;;;;;;12.85;6.72;;;24.70;38.00;;;;;;5004000;28;20185;-75
2022/03/27 10:01:11;;;;;;;9.00;6.88;;;24.90;36.90;;;;;;5009437;28;20588;-76
2022/03/27 10:04:03;;;;;;;9.82;7.00;;;25.20;36.80;;;;;;5015459;28;20184;-75
2022/03/27 10:06:37;;;;;;;10.70;6.95;;;25.30;36.90;;;;;;5010184;28;20238;-75
2022/03/27 10:09:12;;;;;;;10.57;6.43;;;25.60;36.60;;;;;;5009288;28;21639;-75
2022/03/27 10:11:41;;;;;;;11.63;6.47;;;26.00;36.30;;;;;;5013687;28;20192;-75
2022/03/27 10:14:08;;;;;;;11.52;6.40;;;26.00;35.80;;;;;;5009950;28;20291;-75
2022/03/27 10:16:42;;;;;;;8.85;6.55;;;25.70;35.40;;;;;;5008623;28;20275;-76
2022/03/27 10:19:20;;;;;;;10.48;6.28;;;25.70;36.20;;;;;;5007211;28;20646;-76
2022/03/27 10:21:49;;;;;;;9.75;5.53;;;26.10;35.50;;;;;;5012148;28;20255;-74
2022/03/27 10:24:17;;;;;;;8.90;5.40;;;26.50;35.20;;;;;;5012390;28;20192;-74
2022/03/27 10:26:45;;;;;;;7.25;5.00;;;26.80;35.50;;;;;;5015077;28;20224;-75
2022/03/27 10:29:13;;;;;;;7.10;5.47;;;27.10;34.30;;;;;;5013800;28;20185;-74
2022/03/27 10:31:39;;;;;;;9.25;5.38;;;27.30;35.00;;;;;;5011568;28;20202;-74
2022/03/27 10:34:08;;;;;;;6.93;5.18;;;27.50;35.30;;;;;;5012598;28;20193;-75
2022/03/27 10:37:06;;;;;;;8.18;5.43;;;27.80;34.80;;;;;;5014432;28;20200;-74
2022/03/27 10:39:48;;;;;;;6.57;5.50;;;27.80;33.90;;;;;;5014617;28;20686;-74
2022/03/27 10:42:40;;;;;;;9.63;5.40;;;28.10;34.10;;;;;;5010234;28;20185;-72
2022/03/27 10:45:17;;;;;;;6.68;5.22;;;28.30;33.50;;;;;;5013875;28;20200;-73
2022/03/27 10:48:04;;;;;;;11.75;6.10;;;28.20;33.80;;;;;;5015449;28;20196;-74
2022/03/27 10:50:29;;;;;;;6.40;5.20;;;28.30;33.20;;;;;;5018079;28;20189;-74
2022/03/27 10:53:06;;;;;;;5.80;4.97;;;27.70;33.80;;;;;;5014343;28;20554;-73
2022/03/27 10:55:41;;;;;;;5.65;4.82;;;27.70;34.60;;;;;;5016536;28;20184;-74
2022/03/27 10:58:31;;;;;;;6.50;5.78;;;28.10;33.90;;;;;;5010091;28;20212;-74
2022/03/27 11:01:05;;;;;;;6.28;5.65;;;28.20;33.70;;;;;;5012701;28;20611;-74
2022/03/27 11:04:04;;;;;;;7.15;5.07;;;27.90;34.30;;;;;;5014196;28;20176;-73
2022/03/27 11:06:32;;;;;;;6.38;5.25;;;28.30;33.80;;;;;;5002638;28;20817;-73
2022/03/27 11:09:00;;;;;;;7.25;5.28;;;28.50;33.70;;;;;;5002780;28;20189;-73
2022/03/27 11:11:38;;;;;;;8.43;5.72;;;28.20;33.60;;;;;;5003032;28;20698;-73
2022/03/27 11:14:23;;;;;;;9.60;5.60;;;28.30;33.50;;;;;;5002389;28;20235;-73
2022/03/27 11:17:04;;;;;;;8.18;5.88;;;28.40;33.80;;;;;;5002665;28;20658;-74
2022/03/27 11:19:40;;;;;;;6.57;5.30;;;28.80;33.60;;;;;;5003112;28;20780;-73
2022/03/27 11:22:06;;;;;;;7.68;6.25;;;29.30;33.80;;;;;;5001330;28;20900;-73
2022/03/27 11:24:31;;;;;;;6.68;5.93;;;29.50;33.50;;;;;;5001923;28;20287;-72
2022/03/27 11:26:57;;;;;;;7.25;5.38;;;29.90;33.60;;;;;;5001443;28;20228;-74
2022/03/27 11:29:25;;;;;;;8.68;6.60;;;30.30;33.30;;;;;;5001044;28;20197;-74
2022/03/27 11:32:09;;;;;;;11.15;7.82;;;30.70;32.60;;;;;;5001491;28;20589;-74
2022/03/27 11:34:38;;;;;;;12.10;8.82;;;30.90;32.60;;;;;;4999456;28;21104;-74
2022/03/27 11:37:11;;;;;;;13.00;9.05;;;31.00;32.60;;;;;;5000827;28;20817;-73
2022/03/27 11:39:38;;;;;;;14.15;9.65;;;31.10;32.70;;;;;;5001044;28;20280;-73
2022/03/27 11:42:32;;;;;;;13.43;9.13;;;31.20;33.40;;;;;;5002130;28;20247;-72
2022/03/27 11:45:09;;;;;;;15.05;9.65;;;31.40;31.90;;;;;;5012208;28;20275;-72
2022/03/27 11:47:38;;;;;;;13.43;9.45;;;31.30;32.00;;;;;;5017751;28;20188;-73
2022/03/27 11:50:04;;;;;;;14.25;9.40;;;31.40;32.30;;;;;;5012440;28;20177;-73
2022/03/27 11:52:30;;;;;;;13.88;8.98;;;31.30;31.90;;;;;;5013268;28;20207;-73
2022/03/27 11:55:22;;;;;;;17.27;9.25;;;31.00;32.90;;;;;;5007697;28;20628;-72
2022/03/27 11:57:55;;;;;;;12.70;8.77;;;31.00;31.80;;;;;;5008420;28;20207;-72
2022/03/27 12:00:40;;;;;;;8.70;7.80;;;31.10;32.50;;;;;;5009282;28;20291;-73
2022/03/27 12:03:19;;;;;;;9.40;8.38;;;30.70;31.40;;;;;;5009702;28;20593;-73
2022/03/27 12:05:45;;;;;;;17.38;7.70;;;29.90;32.60;;;;;;5008944;28;20242;-73
2022/03/27 12:08:15;;;;;;;10.63;7.80;;;29.70;32.80;;;;;;5003756;28;20244;-73
2022/03/27 12:10:47;;;;;;;10.63;8.07;;;29.70;33.00;;;;;;5005431;28;20213;-73
2022/03/27 12:13:14;;;;;;;12.30;8.80;;;29.50;32.20;;;;;;5008194;28;20285;-73
2022/03/27 12:15:49;;;;;;;14.57;9.18;;;29.10;32.60;;;;;;5010600;28;20815;-74
2022/03/27 12:18:35;;;;;;;10.05;7.93;;;28.90;33.30;;;;;;5006596;28;20185;-73
2022/03/27 12:21:03;;;;;;;9.35;7.75;;;29.10;32.50;;;;;;5003417;28;20303;-73
2022/03/27 12:23:34;;;;;;;10.52;7.32;;;29.10;33.00;;;;;;5007651;28;20591;-73
2022/03/27 12:26:01;;;;;;;8.63;6.60;;;29.40;32.80;;;;;;5004365;28;20217;-72
2022/03/27 12:31:25;;;;;;;12.38;6.38;;;29.90;33.00;;;;;;5001585;28;20192;-73
2022/03/27 12:33:53;;;;;;;12.07;6.75;;;30.20;32.50;;;;;;5008307;28;20307;-74
2022/03/27 12:36:20;;;;;;;7.47;6.10;;;30.50;32.70;;;;;;5003823;28;20219;-73
2022/03/27 12:38:47;;;;;;;7.85;6.78;;;30.90;32.30;;;;;;5009487;28;20189;-75
2022/03/27 12:41:13;;;;;;;9.45;6.18;;;31.20;32.40;;;;;;5005379;28;20701;-75
2022/03/27 12:43:42;;;;;;;7.53;6.75;;;31.20;32.00;;;;;;5002230;28;20189;-74
2022/03/27 12:46:23;;;;;;;9.85;5.90;;;31.30;31.80;;;;;;5007641;28;20223;-75
2022/03/27 12:49:18;;;;;;;7.10;6.07;;;31.50;31.80;;;;;;5012118;28;20193;-75
2022/03/27 12:51:56;;;;;;;9.60;6.80;;;31.20;31.50;;;;;;5003681;28;20306;-75
2022/03/27 12:54:21;;;;;;;7.88;7.10;;;31.00;32.00;;;;;;5004805;28;20192;-74
2022/03/27 12:56:57;;;;;;;10.35;7.05;;;30.60;31.50;;;;;;5009109;28;20201;-74
2022/03/27 12:59:24;;;;;;;9.40;7.28;;;29.90;31.90;;;;;;5004582;28;20645;-74
2022/03/27 13:01:50;;;;;;;9.13;7.40;;;29.60;32.40;;;;;;5008412;28;20184;-72
2022/03/27 13:04:16;;;;;;;8.65;7.03;;;28.90;33.00;;;;;;4993093;28;20663;-72
2022/03/27 13:06:45;;;;;;;8.48;7.13;;;28.60;33.20;;;;;;5003944;28;20224;-73